Terminal Aerodrome Forecast
Issued by NWS Denver/Boulder, CO

Home | Current Version | Previous Version | Text Only | Print | Product List | Glossary On
Versions: 1 2 3 4 5 6 7 8 9 10 11 12 13 14 15 16 17 18 19 20 21 22 23 24 25 26 27 28 29 30 31 32 33 34 35 36 37 38 39 40 41 42 43 44 45 46 47 48 49 50
000
FTUS45 KBOU 301418 AAA
TAFDEN
TAF AMD
KDEN 301418Z 3014/0118 25007KT P6SM FEW150 SCT250
     FM301600 33007KT P6SM FEW150 SCT250
     FM301800 03007KT P6SM FEW090 SCT220
     FM302200 35011KT P6SM FEW090 SCT130 BKN220
     FM010000 34011KT P6SM VCTS SCT080CB BKN140
      TEMPO 0100/0104 VRB20G30KT
     FM010400 22009KT P6SM SCT120 BKN200
     FM011600 30007KT P6SM SCT120 BKN200=

USA.gov is the U.S. government's official web portal to all federal, state and local government web resources and services.